createdAt,value
2023-02-28T00:09:06.648Z,2.10
2023-02-28T00:19:05.402Z,1.90
2023-02-28T00:29:04.457Z,1.90
2023-02-28T00:39:03.699Z,1.80
2023-02-28T00:49:02.647Z,1.70
2023-02-28T00:59:01.393Z,1.80
2023-02-28T01:09:00.403Z,1.90
2023-02-28T01:18:59.452Z,2.00
2023-02-28T01:28:59.903Z,2.00
2023-02-28T01:39:00.988Z,1.90
2023-02-28T01:49:00.471Z,1.90
2023-02-28T01:58:59.536Z,1.70
2023-02-28T02:08:58.400Z,1.60
2023-02-28T02:18:57.443Z,1.50
2023-02-28T02:28:57.762Z,1.20
2023-02-28T02:38:56.334Z,1.10
2023-02-28T02:48:55.609Z,0.90
2023-02-28T02:58:54.990Z,0.70
2023-02-28T03:08:56.374Z,0.70
2023-02-28T03:18:58.668Z,0.70
2023-02-28T03:28:57.921Z,0.60
2023-02-28T03:38:56.671Z,0.50
2023-02-28T03:48:55.416Z,0.40
2023-02-28T03:58:54.548Z,0.40
2023-02-28T04:08:54.764Z,0.50
2023-02-28T04:18:59.242Z,0.60
2023-02-28T04:28:58.557Z,0.70
2023-02-28T04:38:57.603Z,0.80
2023-02-28T04:48:56.586Z,0.80
2023-02-28T04:58:55.808Z,0.90
2023-02-28T05:08:54.556Z,1.00
2023-02-28T05:18:54.483Z,1.00
2023-02-28T05:28:53.566Z,1.00
2023-02-28T05:38:52.499Z,1.00
2023-02-28T05:48:51.564Z,1.00
2023-02-28T05:58:50.553Z,1.00
2023-02-28T06:08:49.600Z,1.00
2023-02-28T06:18:48.691Z,1.00
2023-02-28T06:28:47.641Z,1.00
2023-02-28T06:38:46.567Z,1.00
2023-02-28T06:48:45.638Z,1.00
2023-02-28T06:58:44.667Z,1.10
2023-02-28T07:08:43.551Z,1.20
2023-02-28T07:18:42.456Z,1.50
2023-02-28T07:28:42.888Z,1.80
2023-02-28T07:38:41.463Z,2.00
2023-02-28T07:48:40.540Z,2.30
2023-02-28T07:58:39.564Z,2.60
2023-02-28T08:08:39.176Z,2.80
2023-02-28T08:18:38.511Z,3.10
2023-02-28T08:28:37.725Z,3.40
2023-02-28T08:38:36.751Z,3.60
2023-02-28T08:48:35.502Z,3.80
2023-02-28T08:58:34.734Z,4.00
2023-02-28T09:08:33.668Z,4.00
2023-02-28T09:18:32.621Z,4.70
2023-02-28T09:28:31.598Z,4.80
2023-02-28T09:38:30.823Z,4.40
2023-02-28T09:48:29.670Z,4.30
2023-02-28T09:58:28.713Z,4.20
2023-02-28T10:08:27.769Z,4.60
2023-02-28T10:18:26.601Z,4.60
2023-02-28T10:28:25.656Z,4.40
2023-02-28T10:38:24.676Z,4.60
2023-02-28T10:48:23.730Z,4.40
2023-02-28T10:58:23.258Z,4.50
2023-02-28T11:08:22.651Z,4.40
2023-02-28T11:18:21.701Z,4.70
2023-02-28T11:28:22.755Z,5.40
2023-02-28T11:38:21.629Z,6.00
2023-02-28T11:48:20.674Z,5.70
2023-02-28T11:58:19.715Z,5.80
2023-02-28T12:08:18.585Z,5.80
2023-02-28T12:18:17.822Z,6.40
2023-02-28T12:28:16.743Z,6.80
2023-02-28T12:38:17.593Z,7.10
2023-02-28T12:48:17.011Z,6.80
2023-02-28T12:58:15.847Z,6.80
2023-02-28T13:08:14.686Z,6.90
2023-02-28T13:18:13.735Z,7.00
2023-02-28T13:28:12.609Z,7.20
2023-02-28T13:38:13.318Z,7.40
2023-02-28T13:48:12.717Z,7.70
2023-02-28T13:58:13.449Z,8.10
2023-02-28T14:08:14.231Z,8.30
2023-02-28T14:18:13.751Z,8.50
2023-02-28T14:28:12.803Z,8.80
2023-02-28T14:38:11.843Z,9.10
2023-02-28T14:48:10.927Z,9.10
2023-02-28T14:58:09.774Z,8.90
2023-02-28T15:08:08.774Z,8.90
2023-02-28T15:18:07.824Z,8.90
2023-02-28T15:28:06.675Z,8.70
2023-02-28T15:38:06.070Z,8.60
2023-02-28T15:48:14.296Z,8.40
2023-02-28T15:58:06.952Z,8.10
2023-02-28T16:08:05.774Z,7.70
2023-02-28T16:18:04.749Z,7.50
2023-02-28T16:28:03.830Z,7.10
2023-02-28T16:38:02.898Z,6.80
2023-02-28T16:48:01.759Z,6.60
2023-02-28T16:58:00.950Z,6.30
2023-02-28T17:08:00.006Z,6.10
2023-02-28T17:17:58.735Z,5.80
2023-02-28T17:27:57.884Z,5.60
2023-02-28T17:37:56.965Z,5.40
2023-02-28T17:47:55.983Z,5.30
2023-02-28T17:57:54.813Z,5.20
2023-02-28T18:07:53.850Z,5.10
2023-02-28T18:17:53.019Z,5.00
2023-02-28T18:27:56.808Z,4.90
2023-02-28T18:37:55.902Z,4.80
2023-02-28T18:47:54.966Z,4.70
2023-02-28T18:57:53.991Z,4.60
2023-02-28T19:07:52.844Z,4.50
2023-02-28T19:17:51.897Z,4.40
2023-02-28T19:27:50.948Z,4.30
2023-02-28T19:37:52.149Z,4.10
2023-02-28T19:47:55.323Z,4.00
2023-02-28T19:57:54.048Z,3.80
2023-02-28T20:07:52.985Z,3.50
2023-02-28T20:17:51.928Z,3.30
2023-02-28T20:27:51.072Z,3.20
2023-02-28T20:37:50.325Z,3.00
2023-02-28T20:47:49.062Z,2.90
2023-02-28T20:57:49.613Z,2.70
2023-02-28T21:07:49.076Z,2.60
2023-02-28T21:17:48.238Z,2.50
2023-02-28T21:27:47.792Z,2.40
2023-02-28T21:37:47.051Z,2.20
2023-02-28T21:47:46.033Z,2.10
2023-02-28T21:57:45.059Z,2.10
2023-02-28T22:07:43.908Z,2.20
2023-02-28T22:17:43.028Z,2.10
2023-02-28T22:27:41.968Z,2.00
2023-02-28T22:37:41.066Z,1.90
2023-02-28T22:47:40.172Z,1.80
2023-02-28T22:57:39.219Z,1.70
2023-02-28T23:07:37.958Z,1.60
2023-02-28T23:17:37.004Z,1.50
2023-02-28T23:27:36.050Z,1.50
2023-02-28T23:37:35.134Z,1.40
2023-02-28T23:47:34.026Z,1.30
2023-02-28T23:57:32.983Z,1.10
